Time;durP1;ratioP1;P1;durP2;ratioP2;P2;SDS_P1;SDS_P2;PMS_P1;PMS_P2;Temp;Humidity;BMP_temperature;BMP_pressure;BME280_temperature;BME280_humidity;BME280_pressure;Samples;Min_cycle;Max_cycle;Signal;HPM_P1;HPM_P2
2023/04/14 00:00:24;;;;;;;7.77;3.23;;;7.20;99.90;;;;;;5029016;28;20025;-82
2023/04/14 00:02:50;;;;;;;6.93;2.70;;;7.10;99.90;;;;;;5029246;28;20041;-82
2023/04/14 00:05:16;;;;;;;4.37;2.83;;;7.10;99.90;;;;;;5041432;28;20421;-82
2023/04/14 00:07:41;;;;;;;5.70;3.03;;;7.00;99.90;;;;;;5029871;28;20022;-82
2023/04/14 00:10:07;;;;;;;8.63;3.00;;;7.00;99.90;;;;;;5030416;28;20104;-82
2023/04/14 00:12:33;;;;;;;5.00;2.90;;;7.00;99.90;;;;;;5034824;28;20382;-82
2023/04/14 00:14:58;;;;;;;9.03;3.07;;;6.90;99.90;;;;;;5034561;28;20505;-82
2023/04/14 00:17:24;;;;;;;6.63;3.40;;;6.90;99.90;;;;;;5035897;28;20056;-82
2023/04/14 00:19:50;;;;;;;4.23;2.87;;;6.80;99.90;;;;;;5039427;28;20036;-81
2023/04/14 00:22:15;;;;;;;6.27;3.10;;;6.80;99.90;;;;;;5029805;28;20491;-82
2023/04/14 00:24:42;;;;;;;8.37;3.47;;;6.80;99.90;;;;;;5028794;28;20033;-82
2023/04/14 00:27:10;;;;;;;5.40;2.73;;;6.80;99.90;;;;;;5030100;28;20022;-82
2023/04/14 00:29:39;;;;;;;4.87;3.40;;;6.70;99.90;;;;;;5033916;28;20118;-82
2023/04/14 00:32:05;;;;;;;3.93;3.40;;;6.60;99.90;;;;;;5036440;28;20386;-82
2023/04/14 00:34:31;;;;;;;6.53;4.10;;;6.60;99.90;;;;;;5033915;28;20033;-82
2023/04/14 00:36:57;;;;;;;7.07;4.47;;;6.60;99.90;;;;;;5048584;28;20500;-81
2023/04/14 00:39:23;;;;;;;7.87;4.63;;;6.60;99.90;;;;;;5042880;28;20105;-82
2023/04/14 00:41:48;;;;;;;9.40;4.50;;;6.50;99.90;;;;;;5050377;28;20090;-83
2023/04/14 00:44:14;;;;;;;12.27;4.27;;;6.50;99.90;;;;;;5045934;28;20517;-82
2023/04/14 00:46:41;;;;;;;11.17;4.50;;;6.50;99.90;;;;;;5047232;28;20064;-82
2023/04/14 00:49:07;;;;;;;11.47;5.13;;;6.50;99.90;;;;;;5036801;28;20026;-82
2023/04/14 00:51:33;;;;;;;9.47;6.27;;;6.40;99.90;;;;;;5045767;28;20391;-83
2023/04/14 00:54:01;;;;;;;11.33;5.80;;;6.40;99.90;;;;;;5043635;28;20030;-82
2023/04/14 00:56:30;;;;;;;14.07;6.23;;;6.40;99.90;;;;;;5039219;28;20021;-83
2023/04/14 00:58:56;;;;;;;8.83;5.47;;;6.40;99.90;;;;;;5040086;28;20453;-82
2023/04/14 01:01:23;;;;;;;7.93;5.70;;;6.30;99.90;;;;;;5044140;28;20672;-83
2023/04/14 01:03:49;;;;;;;11.15;6.80;;;6.40;99.90;;;;;;5045253;28;20033;-82
2023/04/14 01:06:15;;;;;;;11.87;5.87;;;6.30;99.90;;;;;;5052135;28;20525;-82
2023/04/14 01:08:40;;;;;;;13.80;5.80;;;6.30;99.90;;;;;;5042877;28;20491;-82
2023/04/14 01:11:13;;;;;;;13.87;6.30;;;6.30;99.90;;;;;;5047001;28;20033;-82
2023/04/14 01:13:47;;;;;;;7.63;6.00;;;6.30;99.90;;;;;;5047623;28;20021;-83
2023/04/14 01:16:28;;;;;;;10.47;6.97;;;6.30;99.90;;;;;;5019818;28;20109;-82
2023/04/14 01:19:15;;;;;;;9.53;6.20;;;6.30;99.90;;;;;;5034705;28;20120;-82
2023/04/14 01:21:48;;;;;;;8.23;6.03;;;6.20;99.90;;;;;;5046708;28;20442;-83
2023/04/14 01:24:42;;;;;;;10.63;6.10;;;6.20;99.90;;;;;;5037750;28;20065;-82
2023/04/14 01:27:35;;;;;;;15.00;6.37;;;6.20;99.90;;;;;;5038453;28;20032;-82
2023/04/14 01:30:44;;;;;;;10.33;6.27;;;6.20;99.90;;;;;;5039880;28;20736;-82
2023/04/14 01:33:14;;;;;;;11.80;6.00;;;6.10;99.90;;;;;;5037475;28;20494;-83
2023/04/14 01:35:45;;;;;;;9.63;6.73;;;6.10;99.90;;;;;;5032875;28;20025;-83
2023/04/14 01:38:21;;;;;;;11.20;6.20;;;6.00;99.90;;;;;;5038346;28;20027;-82
2023/04/14 01:40:51;;;;;;;11.77;6.60;;;6.00;99.90;;;;;;5054336;28;20021;-83
2023/04/14 01:43:24;;;;;;;11.80;6.83;;;6.00;99.90;;;;;;5057282;28;20017;-83
2023/04/14 01:45:54;;;;;;;8.02;6.95;;;5.90;99.90;;;;;;5040800;28;20030;-83
2023/04/14 01:48:20;;;;;;;9.70;6.17;;;5.90;99.90;;;;;;5042247;28;20017;-83
2023/04/14 01:50:47;;;;;;;14.37;7.50;;;5.90;99.90;;;;;;5061813;28;20081;-81
2023/04/14 01:53:15;;;;;;;10.80;6.40;;;5.90;99.90;;;;;;5064856;28;20044;-81
2023/04/14 01:55:43;;;;;;;12.37;7.17;;;5.80;99.90;;;;;;5052904;28;20021;-83
2023/04/14 01:58:09;;;;;;;8.53;6.20;;;5.80;99.90;;;;;;5027154;28;20028;-83
2023/04/14 02:00:36;;;;;;;8.43;6.50;;;5.80;99.90;;;;;;5037747;28;20028;-83
2023/04/14 02:03:03;;;;;;;10.87;6.43;;;5.80;99.90;;;;;;5037968;28;20045;-83
2023/04/14 02:05:30;;;;;;;10.97;6.20;;;5.80;99.90;;;;;;5048984;28;20031;-83
2023/04/14 02:07:59;;;;;;;8.67;6.63;;;5.80;99.90;;;;;;5051542;28;20083;-83
2023/04/14 02:10:26;;;;;;;10.60;6.77;;;5.70;99.90;;;;;;5048593;28;20524;-83
2023/04/14 02:12:55;;;;;;;11.03;6.50;;;5.70;99.90;;;;;;5046959;28;20086;-82
2023/04/14 02:15:23;;;;;;;10.47;7.33;;;5.70;99.90;;;;;;5039865;28;20505;-83
2023/04/14 02:17:49;;;;;;;11.97;6.33;;;5.70;99.90;;;;;;5049572;28;20566;-83
2023/04/14 02:20:15;;;;;;;9.77;6.10;;;5.70;99.90;;;;;;5042608;28;20028;-82
2023/04/14 02:22:41;;;;;;;9.93;6.50;;;5.70;99.90;;;;;;5047530;28;20021;-83
2023/04/14 02:25:07;;;;;;;10.00;6.27;;;5.70;99.90;;;;;;5037646;28;20033;-83
2023/04/14 02:27:39;;;;;;;15.50;8.93;;;5.60;99.90;;;;;;5050643;28;20021;-82
2023/04/14 02:30:21;;;;;;;11.00;7.47;;;5.60;99.90;;;;;;5037897;28;20165;-82
2023/04/14 02:32:51;;;;;;;13.33;7.67;;;5.60;99.90;;;;;;5041079;28;20470;-82
2023/04/14 02:35:25;;;;;;;9.23;6.70;;;5.60;99.90;;;;;;5035501;28;20036;-82
2023/04/14 02:37:54;;;;;;;16.05;7.15;;;5.60;99.90;;;;;;5032079;28;20025;-82
2023/04/14 02:40:25;;;;;;;12.60;6.33;;;5.60;99.90;;;;;;5042941;28;20810;-82
2023/04/14 02:42:58;;;;;;;7.27;6.30;;;5.60;99.90;;;;;;5031694;28;20075;-82
2023/04/14 02:45:29;;;;;;;10.80;7.07;;;5.50;99.90;;;;;;5032819;28;20040;-82
2023/04/14 02:48:00;;;;;;;13.27;6.37;;;5.50;99.90;;;;;;5043117;28;20091;-82
2023/04/14 02:50:27;;;;;;;12.33;6.53;;;5.50;99.90;;;;;;5042561;28;20434;-82
2023/04/14 02:52:54;;;;;;;11.60;7.17;;;5.40;99.90;;;;;;5043932;28;20071;-81
2023/04/14 02:55:21;;;;;;;11.67;6.73;;;5.40;99.90;;;;;;5031210;28;20044;-82
2023/04/14 02:57:48;;;;;;;10.57;7.77;;;5.40;99.90;;;;;;5039712;28;20035;-82
2023/04/14 03:00:15;;;;;;;11.20;6.83;;;5.30;99.90;;;;;;5033530;28;20024;-81
2023/04/14 03:02:43;;;;;;;12.30;7.17;;;5.30;99.90;;;;;;5044189;28;20086;-82
2023/04/14 03:05:09;;;;;;;9.40;6.53;;;5.30;99.90;;;;;;5041515;28;20438;-82
2023/04/14 03:07:36;;;;;;;11.23;7.00;;;5.30;99.90;;;;;;5033612;28;20032;-81
2023/04/14 03:10:03;;;;;;;16.00;6.70;;;5.30;99.90;;;;;;5034306;28;20049;-82
2023/04/14 03:12:28;;;;;;;11.50;7.30;;;5.30;99.90;;;;;;5044214;28;20021;-82
2023/04/14 03:14:54;;;;;;;12.00;7.50;;;5.20;99.90;;;;;;5036407;28;20040;-82
2023/04/14 03:17:21;;;;;;;11.27;6.97;;;5.20;99.90;;;;;;5041189;28;20096;-82
2023/04/14 03:19:48;;;;;;;10.63;7.40;;;5.10;99.90;;;;;;5032595;28;20045;-82
2023/04/14 03:22:16;;;;;;;17.70;7.17;;;5.10;99.90;;;;;;5038821;28;20114;-81
2023/04/14 03:24:43;;;;;;;11.97;6.47;;;5.10;99.90;;;;;;5038372;28;20025;-82
2023/04/14 03:27:25;;;;;;;10.47;7.73;;;5.10;99.90;;;;;;5026909;28;20032;-81
2023/04/14 03:29:53;;;;;;;11.67;7.00;;;5.10;99.90;;;;;;5028839;28;20513;-82
2023/04/14 03:32:25;;;;;;;11.87;8.07;;;5.00;99.90;;;;;;5031113;28;20030;-82
2023/04/14 03:34:56;;;;;;;15.17;8.00;;;5.00;99.90;;;;;;5044402;28;20057;-82
2023/04/14 03:37:26;;;;;;;13.17;7.30;;;5.00;99.90;;;;;;5042229;28;20543;-82
2023/04/14 03:39:52;;;;;;;12.53;7.17;;;5.00;99.90;;;;;;5030359;28;20492;-81
2023/04/14 03:42:20;;;;;;;13.07;8.87;;;5.00;99.90;;;;;;5039868;28;20721;-81
2023/04/14 03:44:52;;;;;;;11.33;7.27;;;4.90;99.90;;;;;;5042914;28;20025;-82
2023/04/14 03:47:18;;;;;;;13.50;7.57;;;4.90;99.90;;;;;;5038244;28;20440;-81
2023/04/14 03:49:46;;;;;;;13.17;7.67;;;4.90;99.90;;;;;;5047498;28;20025;-82
2023/04/14 03:52:16;;;;;;;13.67;7.27;;;4.90;99.90;;;;;;5049995;28;20092;-82
2023/04/14 03:54:43;;;;;;;13.70;7.50;;;4.90;99.90;;;;;;5038145;28;20053;-82
2023/04/14 03:57:12;;;;;;;13.63;7.63;;;4.80;99.90;;;;;;5034693;28;20030;-82
2023/04/14 03:59:40;;;;;;;8.47;6.83;;;4.80;99.90;;;;;;5041030;28;20017;-81
2023/04/14 04:02:07;;;;;;;11.87;7.83;;;4.80;99.90;;;;;;5031636;28;20022;-82
2023/04/14 04:04:35;;;;;;;10.77;7.73;;;4.80;99.90;;;;;;5031014;28;20132;-83
2023/04/14 04:07:01;;;;;;;10.20;8.47;;;4.70;99.90;;;;;;5030910;28;20032;-82
2023/04/14 04:09:28;;;;;;;10.80;7.90;;;4.70;99.90;;;;;;5034558;28;20017;-82
2023/04/14 04:11:57;;;;;;;11.90;7.90;;;4.60;99.90;;;;;;5042092;28;20026;-82
2023/04/14 04:14:26;;;;;;;12.10;8.23;;;4.70;99.90;;;;;;5034890;28;20136;-82
2023/04/14 04:16:53;;;;;;;13.50;8.53;;;4.70;99.90;;;;;;5038653;28;20026;-82
2023/04/14 04:19:20;;;;;;;16.87;8.10;;;4.60;99.90;;;;;;5035704;28;20029;-82
2023/04/14 04:21:48;;;;;;;17.00;9.23;;;4.60;99.90;;;;;;5034723;28;20030;-82
2023/04/14 04:24:16;;;;;;;13.70;9.20;;;4.60;99.90;;;;;;5034005;28;20500;-82
2023/04/14 04:26:42;;;;;;;15.63;8.03;;;4.60;99.90;;;;;;5033411;28;20045;-82
2023/04/14 04:29:09;;;;;;;14.63;8.30;;;4.50;99.90;;;;;;5033822;28;20049;-81
2023/04/14 04:31:35;;;;;;;12.00;9.10;;;4.50;99.90;;;;;;5038754;28;20025;-81
2023/04/14 04:34:05;;;;;;;14.03;7.77;;;4.50;99.90;;;;;;5033890;28;20025;-82
2023/04/14 04:36:31;;;;;;;13.93;7.93;;;4.50;99.90;;;;;;5033664;28;20025;-81
2023/04/14 04:38:57;;;;;;;12.70;9.17;;;4.50;99.90;;;;;;5033826;28;20026;-81
2023/04/14 04:41:28;;;;;;;13.17;8.33;;;4.50;99.90;;;;;;5035041;28;20047;-81
2023/04/14 04:43:54;;;;;;;12.07;8.23;;;4.50;99.90;;;;;;5052666;28;20067;-82
2023/04/14 04:46:20;;;;;;;11.43;7.73;;;4.40;99.90;;;;;;5048581;28;20258;-81
2023/04/14 04:48:49;;;;;;;18.07;9.30;;;4.40;99.90;;;;;;5040460;28;20028;-81
2023/04/14 04:51:16;;;;;;;14.60;8.83;;;4.40;99.90;;;;;;5046632;28;20021;-82
2023/04/14 04:53:42;;;;;;;15.97;8.20;;;4.40;99.90;;;;;;5051725;28;20100;-81
2023/04/14 04:56:07;;;;;;;18.23;8.03;;;4.40;99.90;;;;;;5042245;28;20488;-81
2023/04/14 04:58:33;;;;;;;12.50;9.00;;;4.40;99.90;;;;;;5045160;28;20025;-81
2023/04/14 05:00:58;;;;;;;12.80;8.83;;;4.40;99.90;;;;;;5049794;28;20033;-81
2023/04/14 05:03:24;;;;;;;12.90;9.00;;;4.40;99.90;;;;;;5052210;28;20051;-81
2023/04/14 05:05:50;;;;;;;13.47;8.33;;;4.40;99.90;;;;;;5033971;28;20489;-81
2023/04/14 05:08:15;;;;;;;17.13;8.27;;;4.40;99.90;;;;;;5043497;28;20025;-81
2023/04/14 05:10:41;;;;;;;14.10;9.23;;;4.40;99.90;;;;;;5045913;28;20033;-80
2023/04/14 05:13:06;;;;;;;15.80;10.70;;;4.40;99.90;;;;;;5041400;28;20032;-81
2023/04/14 05:15:32;;;;;;;18.50;10.27;;;4.40;99.90;;;;;;5032617;28;20037;-81
2023/04/14 05:17:58;;;;;;;14.73;8.33;;;4.50;99.90;;;;;;5033070;28;20056;-81
2023/04/14 05:20:23;;;;;;;17.13;9.90;;;4.50;99.90;;;;;;5032234;28;20033;-81
2023/04/14 05:22:49;;;;;;;15.80;9.07;;;4.50;99.90;;;;;;5033189;28;20025;-81
2023/04/14 05:25:14;;;;;;;14.90;8.17;;;4.50;99.90;;;;;;5032256;28;20025;-81
2023/04/14 05:27:40;;;;;;;15.67;8.23;;;4.50;99.90;;;;;;5031568;28;20033;-82
2023/04/14 05:30:06;;;;;;;13.13;9.00;;;4.50;99.90;;;;;;5036297;28;20021;-82
2023/04/14 05:32:32;;;;;;;13.60;8.47;;;4.60;99.90;;;;;;5039881;28;20029;-81
2023/04/14 05:34:57;;;;;;;13.43;9.30;;;4.60;99.90;;;;;;5036656;28;20028;-80
2023/04/14 05:37:23;;;;;;;19.47;8.80;;;4.60;99.90;;;;;;5032007;28;20038;-81
2023/04/14 05:39:49;;;;;;;16.40;8.57;;;4.60;99.90;;;;;;5031369;28;20068;-80
2023/04/14 05:42:14;;;;;;;14.13;9.40;;;4.60;99.90;;;;;;5031058;28;20072;-80
2023/04/14 05:44:40;;;;;;;13.43;8.50;;;4.70;99.90;;;;;;5031978;28;20103;-81
2023/04/14 05:47:05;;;;;;;15.83;8.83;;;4.70;99.90;;;;;;5031583;28;20167;-81
2023/04/14 05:49:31;;;;;;;16.57;9.93;;;4.70;99.90;;;;;;5031519;28;20025;-81
2023/04/14 05:51:56;;;;;;;17.23;10.23;;;4.80;99.90;;;;;;5047920;28;20116;-81
2023/04/14 05:54:22;;;;;;;17.77;9.23;;;4.80;99.90;;;;;;5051892;28;20445;-81
2023/04/14 05:56:48;;;;;;;19.33;10.93;;;4.90;99.90;;;;;;5051574;28;20073;-81
2023/04/14 05:59:15;;;;;;;14.73;9.57;;;4.90;99.90;;;;;;5050436;28;20025;-81
2023/04/14 06:01:40;;;;;;;19.87;11.63;;;5.00;99.90;;;;;;5038234;28;20026;-82
2023/04/14 06:04:06;;;;;;;19.40;12.73;;;5.10;99.90;;;;;;5051527;28;20053;-81
2023/04/14 06:06:31;;;;;;;18.23;9.97;;;5.20;99.90;;;;;;5049584;28;20022;-81
2023/04/14 06:08:57;;;;;;;20.07;11.50;;;5.30;99.90;;;;;;5049758;28;20032;-81
2023/04/14 06:11:22;;;;;;;12.67;9.70;;;5.40;99.90;;;;;;5050059;28;20071;-82
2023/04/14 06:13:49;;;;;;;17.07;10.70;;;5.50;99.90;;;;;;5040905;28;20024;-82
2023/04/14 06:16:14;;;;;;;18.10;9.57;;;5.60;99.90;;;;;;5053845;28;20026;-82
2023/04/14 06:18:40;;;;;;;18.53;9.73;;;5.70;99.90;;;;;;5045127;28;20064;-82
2023/04/14 06:21:06;;;;;;;15.67;8.70;;;5.80;99.90;;;;;;5042521;28;20032;-82
2023/04/14 06:23:32;;;;;;;12.40;8.27;;;5.80;99.90;;;;;;5048731;28;20021;-81
2023/04/14 06:25:58;;;;;;;11.73;8.13;;;5.90;99.90;;;;;;5039861;28;20033;-81
2023/04/14 06:28:25;;;;;;;14.47;8.70;;;6.00;99.90;;;;;;5067557;28;20029;-82
2023/04/14 06:30:51;;;;;;;15.97;7.70;;;6.00;99.90;;;;;;5058219;28;20032;-81
2023/04/14 06:33:17;;;;;;;13.80;7.97;;;6.10;99.90;;;;;;5043253;28;20028;-82
2023/04/14 06:35:43;;;;;;;13.70;7.77;;;6.20;99.90;;;;;;5033395;28;20033;-82
2023/04/14 06:38:09;;;;;;;12.43;7.00;;;6.20;99.90;;;;;;5031350;28;20040;-84
2023/04/14 06:40:35;;;;;;;10.63;7.10;;;6.30;99.90;;;;;;5032753;28;20033;-82
2023/04/14 06:43:00;;;;;;;17.93;8.70;;;6.30;99.90;;;;;;5032925;28;20040;-81
2023/04/14 06:45:26;;;;;;;16.50;7.10;;;6.40;99.90;;;;;;5031524;28;20026;-83
2023/04/14 06:47:51;;;;;;;16.47;7.97;;;6.50;99.90;;;;;;5031712;28;20072;-82
2023/04/14 06:50:17;;;;;;;14.40;7.37;;;6.60;99.90;;;;;;5032192;28;20032;-82
2023/04/14 06:52:42;;;;;;;14.87;7.70;;;6.70;99.90;;;;;;5033542;28;20028;-82
2023/04/14 06:55:08;;;;;;;13.30;6.77;;;6.70;99.90;;;;;;5032733;28;20104;-82
2023/04/14 06:57:34;;;;;;;12.40;6.93;;;6.80;99.90;;;;;;5033133;28;20025;-83
2023/04/14 06:59:59;;;;;;;15.13;6.90;;;6.90;99.90;;;;;;5031246;28;20025;-82
2023/04/14 07:02:27;;;;;;;13.10;6.27;;;6.90;99.90;;;;;;5032734;28;20390;-82
2023/04/14 07:04:53;;;;;;;12.07;6.13;;;7.00;99.90;;;;;;5040283;28;20406;-82
2023/04/14 07:07:18;;;;;;;16.57;7.60;;;7.00;99.90;;;;;;5049148;28;20036;-82
2023/04/14 07:09:44;;;;;;;9.40;5.80;;;7.10;99.90;;;;;;5033820;28;20032;-82
2023/04/14 07:12:13;;;;;;;12.13;5.33;;;7.20;99.90;;;;;;5039298;28;20197;-74
2023/04/14 07:14:40;;;;;;;14.10;6.60;;;7.30;99.90;;;;;;5046988;28;20118;-75
2023/04/14 07:17:05;;;;;;;12.87;6.13;;;7.40;99.90;;;;;;5044274;28;20029;-75
2023/04/14 07:19:31;;;;;;;13.00;7.80;;;7.50;99.90;;;;;;5048744;28;20037;-75
2023/04/14 07:21:57;;;;;;;8.97;6.30;;;7.50;99.90;;;;;;5036728;28;20025;-74
2023/04/14 07:24:22;;;;;;;8.10;5.77;;;7.60;99.90;;;;;;5042737;28;20037;-75
2023/04/14 07:26:48;;;;;;;10.50;5.97;;;7.70;99.90;;;;;;5027960;28;20028;-75
2023/04/14 07:29:13;;;;;;;12.67;5.90;;;7.80;99.90;;;;;;5028631;28;20024;-74
2023/04/14 07:31:39;;;;;;;14.47;5.93;;;7.90;99.90;;;;;;5041175;28;20025;-75
2023/04/14 07:34:05;;;;;;;12.63;5.80;;;7.90;99.90;;;;;;5029363;28;20377;-75
2023/04/14 07:36:31;;;;;;;18.30;5.83;;;8.10;99.90;;;;;;5027754;28;20079;-75
2023/04/14 07:38:57;;;;;;;12.30;5.90;;;8.10;99.90;;;;;;5027917;28;20021;-77
2023/04/14 07:41:24;;;;;;;9.63;6.37;;;8.20;99.90;;;;;;5027980;28;20029;-76
2023/04/14 07:43:54;;;;;;;9.93;5.00;;;8.40;99.90;;;;;;5027344;28;20542;-76
2023/04/14 07:46:20;;;;;;;14.53;6.30;;;8.50;99.90;;;;;;5031817;28;20021;-76
2023/04/14 07:48:45;;;;;;;12.20;4.97;;;8.60;99.90;;;;;;5045608;28;20044;-76
2023/04/14 07:51:11;;;;;;;11.97;5.60;;;8.70;99.90;;;;;;5037688;28;20017;-76
2023/04/14 07:53:41;;;;;;;9.53;4.47;;;8.90;99.90;;;;;;5033705;28;20356;-76
2023/04/14 07:56:07;;;;;;;11.87;4.83;;;8.90;99.90;;;;;;5031869;28;20030;-77
2023/04/14 07:58:32;;;;;;;9.53;4.20;;;9.00;99.90;;;;;;5031251;28;20029;-76
2023/04/14 08:00:58;;;;;;;14.33;4.93;;;9.10;99.90;;;;;;5034216;28;20424;-76
2023/04/14 08:03:23;;;;;;;12.37;4.63;;;9.20;99.90;;;;;;5033813;28;20059;-75
2023/04/14 08:05:49;;;;;;;10.47;4.17;;;9.30;99.90;;;;;;5036227;28;20048;-75
2023/04/14 08:08:14;;;;;;;13.23;4.23;;;9.50;99.90;;;;;;5033753;28;20056;-78
2023/04/14 08:10:41;;;;;;;9.90;3.97;;;9.60;99.90;;;;;;5034886;28;20549;-77
2023/04/14 08:13:06;;;;;;;6.90;3.20;;;9.70;99.90;;;;;;5033308;28;20374;-75
2023/04/14 08:15:32;;;;;;;14.00;3.90;;;9.80;99.90;;;;;;5035570;28;20034;-74
2023/04/14 08:17:57;;;;;;;5.85;2.83;;;9.90;99.90;;;;;;5034930;28;20095;-75
2023/04/14 08:20:23;;;;;;;7.37;3.40;;;10.00;99.90;;;;;;5035793;28;20025;-75
2023/04/14 08:22:48;;;;;;;10.77;3.30;;;10.10;99.90;;;;;;5036087;28;20414;-75
2023/04/14 08:25:14;;;;;;;8.57;3.07;;;10.20;99.90;;;;;;5034664;28;20029;-75
2023/04/14 08:27:40;;;;;;;10.23;3.10;;;10.40;99.90;;;;;;5034828;28;20030;-75
2023/04/14 08:30:06;;;;;;;10.45;3.72;;;10.40;99.90;;;;;;5036951;28;20033;-75
2023/04/14 08:32:32;;;;;;;7.72;3.35;;;10.50;99.90;;;;;;5053166;28;20100;-75
2023/04/14 08:34:58;;;;;;;12.68;3.55;;;10.60;99.90;;;;;;5049618;28;20029;-75
2023/04/14 08:37:23;;;;;;;10.82;3.97;;;10.70;99.90;;;;;;5042969;28;20074;-75
2023/04/14 08:39:49;;;;;;;10.18;3.63;;;10.70;99.90;;;;;;5049044;28;20531;-75
2023/04/14 08:42:16;;;;;;;6.13;2.17;;;10.80;99.90;;;;;;5052234;28;20485;-75
2023/04/14 08:44:41;;;;;;;7.28;2.55;;;10.90;99.90;;;;;;5038077;28;20103;-75
2023/04/14 08:47:08;;;;;;;5.70;2.28;;;11.00;99.90;;;;;;5052664;28;20096;-75
2023/04/14 08:49:43;;;;;;;9.48;2.15;;;11.10;99.90;;;;;;5052753;28;20086;-75
2023/04/14 08:52:12;;;;;;;10.32;2.55;;;11.20;99.90;;;;;;5051941;28;20069;-75
2023/04/14 08:54:40;;;;;;;6.18;2.15;;;11.30;99.90;;;;;;5052678;28;20032;-75
2023/04/14 08:57:11;;;;;;;6.60;2.55;;;11.40;99.90;;;;;;5051326;28;20488;-75
2023/04/14 08:59:37;;;;;;;12.88;2.25;;;11.40;99.90;;;;;;5045797;28;20028;-75
2023/04/14 09:02:06;;;;;;;5.88;2.30;;;11.50;99.90;;;;;;5049981;28;20064;-76
2023/04/14 09:04:34;;;;;;;7.47;2.92;;;11.50;99.90;;;;;;5051738;28;20498;-75
2023/04/14 09:07:01;;;;;;;7.13;2.00;;;11.60;99.90;;;;;;5050197;28;20036;-74
2023/04/14 09:09:29;;;;;;;9.35;1.83;;;11.70;99.90;;;;;;5047284;28;20029;-75
2023/04/14 09:11:56;;;;;;;5.78;2.38;;;11.70;99.90;;;;;;5049410;28;20021;-75
2023/04/14 09:14:22;;;;;;;8.80;2.65;;;11.80;99.90;;;;;;5038074;28;20025;-75
2023/04/14 09:16:51;;;;;;;6.78;2.08;;;11.90;99.90;;;;;;5038646;28;20021;-75
2023/04/14 09:19:17;;;;;;;9.10;2.03;;;12.00;99.90;;;;;;5042480;28;20021;-75
2023/04/14 09:21:42;;;;;;;9.07;1.70;;;12.00;99.90;;;;;;5038816;28;20494;-75
2023/04/14 09:24:08;;;;;;;7.85;1.33;;;12.10;99.90;;;;;;5041555;28;20473;-75
2023/04/14 09:26:33;;;;;;;6.95;1.67;;;12.20;99.90;;;;;;5041908;28;20017;-75
2023/04/14 09:28:59;;;;;;;7.78;1.88;;;12.30;99.90;;;;;;5041047;28;20017;-75
2023/04/14 09:31:25;;;;;;;6.90;1.35;;;12.40;99.90;;;;;;5049124;28;20021;-75
2023/04/14 09:33:52;;;;;;;5.35;2.53;;;12.50;99.90;;;;;;5044232;28;20485;-75
2023/04/14 09:36:19;;;;;;;4.70;1.38;;;12.50;99.90;;;;;;5031027;28;20037;-74
2023/04/14 09:38:45;;;;;;;10.20;2.15;;;12.60;99.90;;;;;;5032250;28;20032;-75
2023/04/14 09:41:16;;;;;;;4.65;1.17;;;12.70;99.90;;;;;;5045546;28;20029;-74
2023/04/14 09:43:42;;;;;;;5.13;1.55;;;12.70;99.90;;;;;;5040749;28;20100;-74
2023/04/14 09:46:09;;;;;;;3.88;1.35;;;12.80;99.80;;;;;;5050611;28;20107;-75
2023/04/14 09:48:36;;;;;;;10.90;1.70;;;12.90;99.60;;;;;;5050995;28;20067;-74
2023/04/14 09:51:12;;;;;;;5.85;1.48;;;12.90;99.10;;;;;;5049989;28;20044;-75
2023/04/14 09:53:40;;;;;;;4.38;1.20;;;13.10;98.70;;;;;;5049954;28;20024;-74
2023/04/14 09:56:08;;;;;;;7.18;1.27;;;13.10;98.40;;;;;;5046928;28;20096;-75
2023/04/14 09:58:38;;;;;;;3.55;1.63;;;13.20;98.10;;;;;;5050739;28;20078;-75
2023/04/14 10:01:12;;;;;;;7.30;1.13;;;13.30;97.70;;;;;;5049313;28;20494;-75
2023/04/14 10:03:40;;;;;;;8.00;1.25;;;13.40;97.30;;;;;;5050721;28;20048;-75
2023/04/14 10:06:19;;;;;;;6.15;0.80;;;13.50;96.80;;;;;;5049530;28;20021;-75
2023/04/14 10:08:47;;;;;;;2.97;1.15;;;13.50;96.20;;;;;;5049073;28;20036;-76
2023/04/14 10:11:28;;;;;;;3.33;0.75;;;13.60;95.80;;;;;;5050008;28;20501;-75
2023/04/14 10:14:00;;;;;;;4.60;1.00;;;13.70;95.50;;;;;;5048142;28;20433;-74
2023/04/14 10:16:26;;;;;;;5.00;1.35;;;13.70;95.10;;;;;;5039220;28;20061;-74
2023/04/14 10:18:52;;;;;;;3.13;0.80;;;13.70;94.90;;;;;;5043657;28;20103;-74
2023/04/14 10:21:21;;;;;;;3.05;0.93;;;13.70;94.80;;;;;;5041327;28;20029;-75
2023/04/14 10:23:47;;;;;;;5.47;1.13;;;13.80;94.70;;;;;;5049301;28;20019;-74
2023/04/14 10:26:14;;;;;;;3.78;0.93;;;13.80;94.70;;;;;;5049750;28;20375;-74
2023/04/14 10:28:44;;;;;;;4.90;1.30;;;13.90;94.50;;;;;;5043002;28;20075;-75
2023/04/14 10:31:23;;;;;;;4.80;1.88;;;14.00;94.30;;;;;;5050272;28;20536;-74
2023/04/14 10:33:48;;;;;;;4.32;1.10;;;14.10;94.20;;;;;;5018682;28;20052;-75
2023/04/14 10:36:30;;;;;;;8.43;1.55;;;14.20;94.10;;;;;;5029269;28;20049;-75
2023/04/14 10:38:58;;;;;;;4.30;1.17;;;14.30;93.40;;;;;;5031008;28;20030;-74
2023/04/14 10:41:24;;;;;;;2.78;0.90;;;14.30;93.10;;;;;;5030143;28;20021;-75
2023/04/14 10:43:49;;;;;;;5.55;1.38;;;14.30;92.80;;;;;;5031268;28;20013;-75
2023/04/14 10:46:15;;;;;;;4.15;1.00;;;14.30;92.30;;;;;;5031960;28;20025;-75
2023/04/14 10:48:47;;;;;;;3.67;1.42;;;14.40;91.50;;;;;;5032091;28;20021;-75
2023/04/14 10:51:16;;;;;;;5.03;0.90;;;14.50;91.20;;;;;;5030941;28;20394;-75
2023/04/14 10:53:49;;;;;;;4.93;1.23;;;14.50;91.50;;;;;;5030196;28;20163;-75
2023/04/14 10:56:14;;;;;;;8.10;1.73;;;14.60;91.20;;;;;;5031870;28;20026;-75
2023/04/14 10:58:40;;;;;;;4.28;1.65;;;14.50;90.90;;;;;;5032063;28;20038;-75
2023/04/14 11:01:24;;;;;;;6.50;1.17;;;14.40;90.80;;;;;;5031783;28;20029;-75
2023/04/14 11:03:51;;;;;;;2.97;0.90;;;14.40;91.00;;;;;;5032480;28;20563;-75
2023/04/14 11:06:51;;;;;;;5.72;1.70;;;14.40;90.60;;;;;;5022172;28;20037;-75
2023/04/14 11:09:31;;;;;;;6.68;1.20;;;14.50;90.40;;;;;;5036429;28;20028;-75
2023/04/14 11:12:21;;;;;;;5.93;1.20;;;14.60;89.50;;;;;;5044783;28;20060;-75
2023/04/14 11:14:46;;;;;;;3.25;0.90;;;14.70;88.90;;;;;;5040772;28;20078;-75
2023/04/14 11:17:19;;;;;;;6.75;1.45;;;14.70;88.90;;;;;;5032394;28;20103;-75
2023/04/14 11:19:44;;;;;;;2.88;0.80;;;14.80;88.40;;;;;;5040597;28;20033;-75
2023/04/14 11:22:10;;;;;;;5.85;0.90;;;14.80;88.30;;;;;;5031143;28;20109;-75
2023/04/14 11:24:36;;;;;;;4.50;1.48;;;14.80;87.10;;;;;;5041220;28;20028;-75
2023/04/14 11:27:01;;;;;;;4.03;0.93;;;14.70;87.00;;;;;;5048076;28;20112;-74
2023/04/14 11:29:27;;;;;;;4.75;0.95;;;14.60;86.10;;;;;;5047506;28;20025;-75
2023/04/14 11:32:05;;;;;;;4.10;0.77;;;14.60;85.50;;;;;;5037511;28;20029;-75
2023/04/14 11:34:32;;;;;;;4.82;0.80;;;14.80;85.10;;;;;;5048495;28;20025;-75
2023/04/14 11:37:00;;;;;;;4.15;0.73;;;14.90;84.90;;;;;;5048029;28;20108;-76
2023/04/14 11:39:28;;;;;;;4.03;0.73;;;15.10;84.50;;;;;;5039510;28;20024;-75
2023/04/14 11:41:58;;;;;;;3.72;0.77;;;15.20;83.20;;;;;;5048271;28;20468;-74
2023/04/14 11:44:24;;;;;;;2.80;1.33;;;15.30;81.70;;;;;;5047938;28;20035;-75
2023/04/14 11:46:50;;;;;;;9.45;2.08;;;15.40;81.90;;;;;;5049017;28;20017;-75
2023/04/14 11:49:16;;;;;;;3.85;0.98;;;15.60;82.00;;;;;;5045819;28;20053;-75
2023/04/14 11:51:42;;;;;;;8.07;1.23;;;15.70;81.70;;;;;;5048087;28;20037;-74
2023/04/14 11:54:10;;;;;;;3.75;1.02;;;15.80;81.40;;;;;;5046579;28;20031;-75
2023/04/14 11:56:36;;;;;;;5.53;1.10;;;15.80;81.60;;;;;;5048583;28;20017;-75
2023/04/14 11:59:04;;;;;;;5.60;1.15;;;15.80;81.60;;;;;;5045733;28;20036;-75
2023/04/14 12:01:30;;;;;;;5.80;1.10;;;15.80;81.30;;;;;;5047893;28;20539;-75
2023/04/14 12:03:56;;;;;;;6.55;1.45;;;15.70;81.40;;;;;;5046439;28;20112;-75
2023/04/14 12:06:23;;;;;;;5.10;1.85;;;15.80;80.60;;;;;;5044250;28;20509;-75
2023/04/14 12:08:55;;;;;;;3.35;1.08;;;15.70;79.20;;;;;;5034370;28;20030;-75
2023/04/14 12:11:21;;;;;;;5.68;1.10;;;15.60;78.40;;;;;;5032731;28;20280;-76
2023/04/14 12:13:48;;;;;;;3.85;1.08;;;15.40;78.40;;;;;;5035967;28;20044;-75
2023/04/14 12:16:15;;;;;;;4.47;1.67;;;15.40;78.50;;;;;;5035862;28;20031;-74
2023/04/14 12:18:42;;;;;;;5.25;1.40;;;15.40;79.00;;;;;;5030000;28;20026;-75
2023/04/14 12:21:08;;;;;;;3.80;0.85;;;15.40;78.00;;;;;;5026706;28;20413;-74
2023/04/14 12:23:35;;;;;;;2.33;0.90;;;15.30;78.00;;;;;;5030000;28;20025;-75
2023/04/14 12:26:01;;;;;;;5.20;1.00;;;15.30;78.90;;;;;;5028784;28;20398;-74
2023/04/14 12:28:27;;;;;;;8.10;1.35;;;15.40;79.00;;;;;;5039283;28;20071;-75
2023/04/14 12:30:58;;;;;;;3.80;1.17;;;15.50;78.70;;;;;;5044912;28;20402;-75
2023/04/14 12:33:26;;;;;;;5.53;1.10;;;15.70;78.70;;;;;;5047455;28;20489;-75
2023/04/14 12:35:58;;;;;;;5.60;1.55;;;15.80;77.90;;;;;;5050528;28;20028;-76
2023/04/14 12:38:26;;;;;;;4.43;1.20;;;15.80;76.90;;;;;;5046830;28;20031;-75
2023/04/14 12:40:52;;;;;;;5.25;0.90;;;15.80;76.90;;;;;;5034324;28;20024;-75
2023/04/14 12:43:30;;;;;;;3.47;0.80;;;15.80;76.60;;;;;;5037193;28;20032;-75
2023/04/14 12:45:57;;;;;;;4.60;0.80;;;15.90;76.70;;;;;;5046239;28;20486;-75
2023/04/14 12:48:44;;;;;;;11.23;1.42;;;16.00;76.50;;;;;;5031976;28;20068;-75
2023/04/14 12:51:12;;;;;;;5.93;1.35;;;16.00;75.90;;;;;;5037829;28;20029;-75